createdAt,value
2022-12-02T00:04:00.359Z,18
2022-12-02T00:09:04.870Z,16
2022-12-02T00:15:15.556Z,20
2022-12-02T00:21:26.239Z,16
2022-12-02T00:27:36.854Z,15
2022-12-02T00:33:47.561Z,17
2022-12-02T00:40:06.400Z,16
2022-12-02T00:46:17.080Z,18
2022-12-02T00:52:27.746Z,17
2022-12-02T00:58:38.406Z,18
2022-12-02T01:04:49.537Z,18
2022-12-02T01:10:51.926Z,17
2022-12-02T01:17:02.506Z,17
2022-12-02T01:23:12.869Z,15
2022-12-02T01:29:23.559Z,16
2022-12-02T01:35:34.196Z,17
2022-12-02T01:41:44.852Z,17
2022-12-02T01:47:55.539Z,17
2022-12-02T01:54:06.190Z,16
2022-12-02T02:00:16.840Z,17
2022-12-02T02:06:27.552Z,16
2022-12-02T02:12:29.967Z,20
2022-12-02T02:19:54.776Z,17
2022-12-02T02:26:05.456Z,19
2022-12-02T02:32:16.152Z,17
2022-12-02T02:37:29.040Z,16
2022-12-02T02:43:39.750Z,17
2022-12-02T02:49:50.364Z,19
2022-12-02T02:56:01.043Z,19
2022-12-02T03:02:11.785Z,18
2022-12-02T03:08:22.363Z,17
2022-12-02T03:14:24.842Z,19
2022-12-02T03:20:35.537Z,20
2022-12-02T03:26:46.165Z,20
2022-12-02T03:32:56.847Z,20
2022-12-02T03:39:07.518Z,20
2022-12-02T03:45:18.173Z,20
2022-12-02T03:51:28.822Z,19
2022-12-02T03:57:39.520Z,19
2022-12-02T04:03:50.169Z,21
2022-12-02T04:09:52.626Z,19
2022-12-02T04:16:03.318Z,21
2022-12-02T04:22:14.012Z,20
2022-12-02T04:28:24.617Z,20
2022-12-02T04:34:35.318Z,19
2022-12-02T04:40:45.933Z,21
2022-12-02T04:46:56.731Z,21
2022-12-02T04:52:01.349Z,22
2022-12-02T04:58:12.016Z,21
2022-12-02T05:05:36.811Z,22
2022-12-02T05:10:41.528Z,23
2022-12-02T05:16:52.218Z,23
2022-12-02T05:23:02.864Z,24
2022-12-02T05:29:13.557Z,25
2022-12-02T05:35:24.186Z,25
2022-12-02T05:41:34.884Z,27
2022-12-02T05:47:45.540Z,30
2022-12-02T05:53:56.170Z,25
2022-12-02T06:00:06.865Z,29
2022-12-02T06:06:17.549Z,29
2022-12-02T06:12:20.022Z,29
2022-12-02T06:18:30.656Z,31
2022-12-02T06:24:41.339Z,32
2022-12-02T06:30:52.134Z,31
2022-12-02T06:37:02.646Z,31
2022-12-02T06:43:13.384Z,35
2022-12-02T06:49:23.970Z,35
2022-12-02T06:55:34.639Z,37
2022-12-02T07:01:45.402Z,39
2022-12-02T07:07:55.993Z,38
2022-12-02T07:13:58.445Z,37
2022-12-02T07:20:09.158Z,36
2022-12-02T07:26:19.767Z,37
2022-12-02T07:32:30.430Z,37
2022-12-02T07:37:43.386Z,37
2022-12-02T07:43:54.045Z,36
2022-12-02T07:50:04.721Z,40
2022-12-02T07:56:15.365Z,39
2022-12-02T08:02:26.022Z,36
2022-12-02T08:08:36.701Z,38
2022-12-02T08:14:39.193Z,37
2022-12-02T08:20:49.834Z,36
2022-12-02T08:27:00.492Z,37
2022-12-02T08:33:11.181Z,37
2022-12-02T08:39:21.830Z,37
2022-12-02T08:45:32.464Z,37
2022-12-02T08:51:43.339Z,36
2022-12-02T08:56:47.863Z,38
2022-12-02T09:02:58.581Z,34
2022-12-02T09:09:09.268Z,37
2022-12-02T09:15:11.678Z,29
2022-12-02T09:21:22.334Z,32
2022-12-02T09:27:33.054Z,37
2022-12-02T09:33:43.688Z,33
2022-12-02T09:39:54.317Z,38
2022-12-02T09:46:05.045Z,41
2022-12-02T09:52:15.686Z,37
2022-12-02T09:58:26.318Z,32
2022-12-02T10:04:37.014Z,34
2022-12-02T10:09:49.916Z,28
2022-12-02T10:15:52.518Z,28
2022-12-02T10:22:03.104Z,42
2022-12-02T10:28:13.725Z,38
2022-12-02T10:34:24.375Z,30
2022-12-02T10:40:35.081Z,64
2022-12-02T10:46:45.787Z,22
2022-12-02T10:52:56.381Z,8
2022-12-02T10:59:07.070Z,7
2022-12-02T11:05:17.705Z,6
2022-12-02T11:12:34.310Z,7
2022-12-02T11:18:45.022Z,6
2022-12-02T11:24:55.803Z,6
2022-12-02T11:31:06.400Z,5
2022-12-02T11:37:16.997Z,6
2022-12-02T11:43:27.644Z,7
2022-12-02T11:49:38.317Z,5
2022-12-02T11:55:48.983Z,6
2022-12-02T12:05:42.154Z,7
2022-12-02T12:12:58.686Z,6
2022-12-02T12:19:09.340Z,7
2022-12-02T12:25:23.468Z,9
2022-12-02T12:31:36.500Z,8
2022-12-02T12:37:57.685Z,8
2022-12-02T12:44:08.364Z,13
2022-12-02T12:50:19.081Z,9
2022-12-02T12:56:29.679Z,9
2022-12-02T13:02:40.416Z,9
2022-12-02T13:07:45.136Z,9
2022-12-02T13:13:55.819Z,9
2022-12-02T13:19:58.259Z,10
2022-12-02T13:26:14.787Z,11
2022-12-02T13:32:19.573Z,11
2022-12-02T13:38:30.205Z,10
2022-12-02T13:44:40.889Z,9
2022-12-02T13:50:51.546Z,11
2022-12-02T13:57:02.199Z,11
2022-12-02T14:03:13.047Z,10
2022-12-02T14:09:23.517Z,12
2022-12-02T14:16:40.124Z,10
2022-12-02T14:22:50.839Z,10
2022-12-02T14:29:01.457Z,10
2022-12-02T14:35:12.163Z,10
2022-12-02T14:41:22.864Z,10
2022-12-02T14:47:33.545Z,10
2022-12-02T14:53:49.306Z,9
2022-12-02T14:59:54.800Z,10
2022-12-02T15:06:05.610Z,11
2022-12-02T15:11:18.391Z,12
2022-12-02T15:17:20.884Z,10
2022-12-02T15:23:31.524Z,11
2022-12-02T15:30:56.371Z,11
2022-12-02T15:37:07.020Z,12
2022-12-02T15:43:17.654Z,11
2022-12-02T15:49:28.292Z,13
2022-12-02T15:55:39.011Z,13
2022-12-02T16:01:49.703Z,13
2022-12-02T16:08:00.415Z,12
2022-12-02T16:14:11.007Z,15
2022-12-02T16:20:13.445Z,13
2022-12-02T16:26:24.119Z,28
2022-12-02T16:32:34.817Z,16
2022-12-02T16:38:45.440Z,12
2022-12-02T16:44:56.407Z,12
2022-12-02T16:51:06.817Z,13
2022-12-02T16:57:17.442Z,11
2022-12-02T17:03:28.138Z,14
2022-12-02T17:09:38.802Z,14
2022-12-02T17:15:49.436Z,12
2022-12-02T17:22:00.102Z,13
2022-12-02T17:28:10.798Z,17
2022-12-02T17:34:21.413Z,12
2022-12-02T17:39:34.355Z,12
2022-12-02T17:45:45.054Z,17
2022-12-02T17:52:18.812Z,16
2022-12-02T17:58:06.370Z,13
2022-12-02T18:04:17.026Z,14
2022-12-02T18:10:27.667Z,14
2022-12-02T18:16:38.412Z,13
2022-12-02T18:22:40.809Z,13
2022-12-02T18:28:51.454Z,13
2022-12-02T18:35:02.397Z,14
2022-12-02T18:41:12.822Z,14
2022-12-02T18:47:23.461Z,17
2022-12-02T18:53:34.150Z,34
2022-12-02T18:59:44.808Z,15
2022-12-02T19:05:55.467Z,12
2022-12-02T19:12:06.116Z,11
2022-12-02T19:19:22.744Z,9
2022-12-02T19:25:36.426Z,8
2022-12-02T19:31:44.677Z,8
2022-12-02T19:37:57.172Z,8
2022-12-02T19:44:05.417Z,9
2022-12-02T19:50:16.032Z,10
2022-12-02T19:56:26.751Z,9
2022-12-02T20:02:37.556Z,9
2022-12-02T20:07:50.370Z,10
2022-12-02T20:14:00.984Z,9
2022-12-02T20:20:03.425Z,9
2022-12-02T20:26:14.121Z,9
2022-12-02T20:32:24.781Z,9
2022-12-02T20:38:35.412Z,15
2022-12-02T20:44:52.162Z,12
2022-12-02T20:50:56.801Z,14
2022-12-02T20:57:07.407Z,13
2022-12-02T21:03:18.128Z,14
2022-12-02T21:09:28.781Z,18
2022-12-02T21:15:39.414Z,27
2022-12-02T21:21:50.091Z,31
2022-12-02T21:28:00.789Z,18
2022-12-02T21:34:11.431Z,14
2022-12-02T21:40:22.088Z,13
2022-12-02T21:46:32.819Z,12
2022-12-02T21:52:43.423Z,11
2022-12-02T21:58:54.067Z,10
2022-12-02T22:05:04.773Z,10
2022-12-02T22:11:15.409Z,12
2022-12-02T22:17:26.119Z,11
2022-12-02T22:23:28.562Z,8
2022-12-02T22:29:39.228Z,8
2022-12-02T22:35:50.083Z,6
2022-12-02T22:41:02.818Z,8
2022-12-02T22:47:13.456Z,8
2022-12-02T22:53:24.139Z,6
2022-12-02T22:59:34.799Z,6
2022-12-02T23:05:45.454Z,6
2022-12-02T23:11:56.128Z,6
2022-12-02T23:19:12.739Z,6
2022-12-02T23:25:23.364Z,11
2022-12-02T23:31:34.135Z,18
2022-12-02T23:37:44.724Z,8
2022-12-02T23:43:55.396Z,12
2022-12-02T23:50:06.050Z,10
2022-12-02T23:56:16.718Z,11
